地図

経路データ

SID SEASON NUMBER BASIN SUBBASIN NAME ISO_TIME NATURE LAT LON WMO_WIND WMO_PRES WMO_AGENCY TRACK_TYPE DIST2LAND LANDFALL IFLAG USA_AGENCY USA_ATCF_ID USA_LAT USA_LON USA_RECORD USA_STATUS USA_WIND USA_PRES USA_SSHS USA_R34_NE USA_R34_SE USA_R34_SW USA_R34_NW USA_R50_NE USA_R50_SE USA_R50_SW USA_R50_NW USA_R64_NE USA_R64_SE USA_R64_SW USA_R64_NW USA_POCI USA_ROCI USA_RMW USA_EYE TOKYO_LAT TOKYO_LON TOKYO_GRADE TOKYO_WIND TOKYO_PRES TOKYO_R50_DIR TOKYO_R50_LONG TOKYO_R50_SHORT TOKYO_R30_DIR TOKYO_R30_LONG TOKYO_R30_SHORT TOKYO_LAND CMA_LAT CMA_LON CMA_CAT CMA_WIND CMA_PRES HKO_LAT HKO_LON HKO_CAT HKO_WIND HKO_PRES NEWDELHI_LAT NEWDELHI_LON NEWDELHI_GRADE NEWDELHI_WIND NEWDELHI_PRES NEWDELHI_CI NEWDELHI_DP NEWDELHI_POCI REUNION_LAT REUNION_LON REUNION_TYPE REUNION_WIND REUNION_PRES REUNION_TNUM REUNION_CI REUNION_RMW REUNION_R34_NE REUNION_R34_SE REUNION_R34_SW REUNION_R34_NW REUNION_R50_NE REUNION_R50_SE REUNION_R50_SW REUNION_R50_NW REUNION_R64_NE REUNION_R64_SE REUNION_R64_SW REUNION_R64_NW BOM_LAT BOM_LON BOM_TYPE BOM_WIND BOM_PRES BOM_TNUM BOM_CI BOM_RMW BOM_R34_NE BOM_R34_SE BOM_R34_SW BOM_R34_NW BOM_R50_NE BOM_R50_SE BOM_R50_SW BOM_R50_NW BOM_R64_NE BOM_R64_SE BOM_R64_SW BOM_R64_NW BOM_ROCI BOM_POCI BOM_EYE BOM_POS_METHOD BOM_PRES_METHOD NADI_LAT NADI_LON NADI_CAT NADI_WIND NADI_PRES WELLINGTON_LAT WELLINGTON_LON WELLINGTON_WIND WELLINGTON_PRES DS824_LAT DS824_LON DS824_STAGE DS824_WIND DS824_PRES TD9636_LAT TD9636_LON TD9636_STAGE TD9636_WIND TD9636_PRES TD9635_LAT TD9635_LON TD9635_WIND TD9635_PRES TD9635_ROCI NEUMANN_LAT NEUMANN_LON NEUMANN_CLASS NEUMANN_WIND NEUMANN_PRES MLC_LAT MLC_LON MLC_CLASS MLC_WIND MLC_PRES USA_GUST BOM_GUST BOM_GUST_PER REUNION_GUST REUNION_GUST_PER USA_SEAHGT USA_SEARAD_NE USA_SEARAD_SE USA_SEARAD_SW USA_SEARAD_NW STORM_SPEED STORM_DIR
1919209N18090 1919 18 NI BB NOT_NAMED 1919-07-28 00:00:00 TS 18.1000 90.4000 main 344 336 _________O____ -1 18.1000 90.4000 TC 34 1 342
1919209N18090 1919 18 NI BB NOT_NAMED 1919-07-28 03:00:00 TS 18.1650 90.3750 main 336 336 _________PO___ -1 18.1975 90.3625 TC 36 18.1000 90.4000 2 2 331
1919209N18090 1919 18 NI BB NOT_NAMED 1919-07-28 06:00:00 TS 18.2656 90.3069 main 336 336 _________OP___ -1 18.3000 90.3000 TC 39 18.2141 90.3173 2 3 323
1919209N18090 1919 18 NI BB NOT_NAMED 1919-07-28 09:00:00 TS 18.3711 90.2161 main 337 337 _________PP___ -1 18.4075 90.2000 TC 42 18.3225 90.2376 2 3 319
1919209N18090 1919 18 NI BB NOT_NAMED 1919-07-28 12:00:00 TS 18.4599 90.1321 main 338 338 _________OP___ -1 18.5000 90.1000 TC 45 18.4197 90.1641 2 2 319
1919209N18090 1919 18 NI BB NOT_NAMED 1919-07-28 15:00:00 TS 18.5287 90.0712 main 338 332 _________PO___ -1 18.5575 90.0425 TC 45 18.5000 90.1000 3 2 319
1919209N18090 1919 18 NI BB NOT_NAMED 1919-07-28 18:00:00 TS 18.5801 90.0234 main 341 341 _________OP___ -1 18.6000 90.0000 TC 45 18.5603 90.0468 3 1 320
1919209N18090 1919 18 NI BB NOT_NAMED 1919-07-28 21:00:00 TS 18.6287 89.9787 main 341 334 _________PP___ -1 18.6500 89.9575 TC 45 18.6075 89.9999 3 1 317
1919209N18090 1919 18 NI BB NOT_NAMED 1919-07-29 00:00:00 TS 18.6755 89.9265 main 334 334 _________OP___ -1 18.7000 89.9000 TC 45 18.6509 89.9531 3 2 309
1919209N18090 1919 18 NI BB NOT_NAMED 1919-07-29 03:00:00 TS 18.7213 89.8500 main 334 321 _________PO___ -1 18.7425 89.8000 TC 45 18.7000 89.9000 3 2 305
1919209N18090 1919 18 NI BB NOT_NAMED 1919-07-29 06:00:00 TS 18.7819 89.7641 main 321 308 _________OP___ -1 18.8000 89.7000 TC 45 18.7638 89.8281 3 2 314
1919209N18090 1919 18 NI BB NOT_NAMED 1919-07-29 09:00:00 TS 18.8638 89.6963 main 308 295 _________PP___ -1 18.8925 89.6425 TC 45 18.8350 89.7500 3 2 325
1919209N18090 1919 18 NI BB NOT_NAMED 1919-07-29 12:00:00 TS 18.9569 89.6359 main 295 295 _________OP___ -1 19.0000 89.6000 TC 45 18.9138 89.6719 3 2 329
1919209N18090 1919 18 NI BB NOT_NAMED 1919-07-29 15:00:00 TS 19.0500 89.5750 main 284 282 _________PO___ -1 19.1000 89.5500 TC 45 19.0000 89.6000 3 2 334
1919209N18090 1919 18 NI BB NOT_NAMED 1919-07-29 18:00:00 TS 19.1443 89.5315 main 282 271 _________OP___ -1 19.2000 89.5000 TC 45 19.0887 89.5630 3 2 339
1919209N18090 1919 18 NI BB NOT_NAMED 1919-07-29 21:00:00 TS 19.2387 89.4974 main 271 259 _________PP___ -1 19.2925 89.4650 TC 45 19.1849 89.5298 3 2 335
1919209N18090 1919 18 NI BB NOT_NAMED 1919-07-30 00:00:00 TS 19.3443 89.4409 main 259 235 _________OP___ -1 19.4000 89.4000 TC 45 19.2886 89.4817 3 3 327
1919209N18090 1919 18 NI BB NOT_NAMED 1919-07-30 03:00:00 TS 19.4750 89.3363 main 235 223 _________PO___ -1 19.5500 89.2725 TC 45 19.4000 89.4000 3 4 317
1919209N18090 1919 18 NI BB NOT_NAMED 1919-07-30 06:00:00 TS 19.6130 89.1745 main 223 212 _________OP___ -1 19.7000 89.1000 TC 45 19.5261 89.2489 3 4 308
1919209N18090 1919 18 NI BB NOT_NAMED 1919-07-30 09:00:00 TS 19.7326 88.9789 main 212 201 _________PP___ -1 19.8075 88.8925 TC 45 19.6577 89.0653 3 4 302
1919209N18090 1919 18 NI BB NOT_NAMED 1919-07-30 12:00:00 TS 19.8427 88.7870 main 201 189 _________OP___ -1 19.9000 88.7000 TC 45 19.7855 88.8739 3 4 305
1919209N18090 1919 18 NI BB NOT_NAMED 1919-07-30 15:00:00 TS 19.9537 88.6425 main 179 179 _________PO___ -1 20.0075 88.5850 TC 45 19.9000 88.7000 3 3 312
1919209N18090 1919 18 NI BB NOT_NAMED 1919-07-30 18:00:00 TS 20.0446 88.5472 main 174 167 _________OP___ -1 20.1000 88.5000 TC 45 19.9892 88.5945 3 2 312
1919209N18090 1919 18 NI BB NOT_NAMED 1919-07-30 21:00:00 TS 20.1074 88.4611 main 167 156 _________PP___ -1 20.1500 88.4149 TC 45 20.0647 88.5072 3 2 305
1919209N18090 1919 18 NI BB NOT_NAMED 1919-07-31 00:00:00 TS 20.1665 88.3582 main 156 136 _________OP___ -1 20.2000 88.3000 TC 45 20.1329 88.4164 3 3 301
1919209N18090 1919 18 NI BB NOT_NAMED 1919-07-31 03:00:00 TS 20.2500 88.2075 main 132 113 _________PO___ -1 20.3000 88.1151 TC 45 20.2000 88.3000 3 4 298
1919209N18090 1919 18 NI BB NOT_NAMED 1919-07-31 06:00:00 TS 20.3355 88.0144 main 113 89 _________OP___ -1 20.4000 87.9000 TC 45 20.2710 88.1287 3 4 292
1919209N18090 1919 18 NI BB NOT_NAMED 1919-07-31 09:00:00 TS 20.3963 87.8149 main 89 66 _________PP___ -1 20.4500 87.6999 TC 45 20.3426 87.9299 3 4 288
1919209N18090 1919 18 NI BB NOT_NAMED 1919-07-31 12:00:00 TS 20.4589 87.6081 main 66 47 _________OP___ -1 20.5000 87.5000 TC 45 20.4179 87.7162 3 4 291
1919209N18090 1919 18 NI BB NOT_NAMED 1919-07-31 15:00:00 TS 20.5462 87.4000 main 47 23 _________PO___ -1 20.5925 87.3000 TC 41 20.5000 87.5000 3 4 297
1919209N18090 1919 18 NI BB NOT_NAMED 1919-07-31 18:00:00 TS 20.6358 87.2341 main 23 10 _________OP___ -1 20.7000 87.1000 TC 37 20.5715 87.3682 3 3 300
1919209N18090 1919 18 NI BB NOT_NAMED 1919-07-31 21:00:00 TS 20.7152 87.0928 main 10 0 _________PP___ -1 20.7771 86.9596 TC 33 20.6534 87.2261 3 4 299
1919209N18090 1919 18 NI BB NOT_NAMED 1919-08-01 00:00:00 TS 20.8293 86.8605 main 0 0 _________OP___ -1 20.9000 86.7000 TC 30 20.7586 87.0210 3 7 296
1919209N18090 1919 18 NI BB NOT_NAMED 1919-08-01 03:00:00 TS 21.0176 86.4339 main 0 0 _________PO___ -1 21.1352 86.1678 TC 30 20.9000 86.7000 1 11 293
1919209N18090 1919 18 NI BB NOT_NAMED 1919-08-01 06:00:00 TS 21.2475 85.8289 main 0 0 _________OP___ -1 21.4000 85.5000 TC 30 21.0950 86.1578 1 13 291
1919209N18090 1919 18 NI BB NOT_NAMED 1919-08-01 09:00:00 TS 21.4652 85.1620 main 0 0 _________PP___ -1 21.6077 84.8199 TC 30 21.3227 85.5042 1 13 290
1919209N18090 1919 18 NI BB NOT_NAMED 1919-08-01 12:00:00 TS 21.6819 84.5116 main 0 0 _________OP___ -1 21.8000 84.2000 TC 30 21.5638 84.8233 1 12 292
1919209N18090 1919 18 NI BB NOT_NAMED 1919-08-01 15:00:00 TS 21.8998 83.9774 main 0 0 _________PO___ -1 21.9996 83.7548 TC 30 21.8000 84.2000 1 9 297
1919209N18090 1919 18 NI BB NOT_NAMED 1919-08-01 18:00:00 TS 22.0999 83.6202 main 0 0 _________OP___ -1 22.2000 83.4000 TC 30 21.9998 83.8404 1 7 304
1919209N18090 1919 18 NI BB NOT_NAMED 1919-08-01 21:00:00 TS 22.2970 83.3344 main 0 0 _________PP___ -1 22.3989 83.1319 TC 30 22.1950 83.5369 1 7 302
1919209N18090 1919 18 NI BB NOT_NAMED 1919-08-02 00:00:00 TS 22.4965 82.9451 main 0 0 _________OP___ -1 22.6000 82.7000 TC 30 22.3929 83.1901 1 11 292
1919209N18090 1919 18 NI BB NOT_NAMED 1919-08-02 03:00:00 TS 22.6967 82.2662 main 0 0 _________PO___ -1 22.7933 81.8324 TC 30 22.6000 82.7000 1 15 285
1919209N18090 1919 18 NI BB NOT_NAMED 1919-08-02 06:00:00 TS 22.9048 81.3385 main 0 0 _________OP___ -1 23.0000 80.8000 TC 30 22.8095 81.8770 1 18 284
1919209N18090 1919 18 NI BB NOT_NAMED 1919-08-02 09:00:00 TS 23.1304 80.3791 main 0 0 _________PP___ -1 23.2350 79.8475 TC 30 23.0257 80.9108 1 18 285
1919209N18090 1919 18 NI BB NOT_NAMED 1919-08-02 12:00:00 TS 23.3767 79.4570 main 0 0 _________OP___ -1 23.5000 79.0000 TC 30 23.2533 79.9141 1 16 288
1919209N18090 1919 18 NI BB NOT_NAMED 1919-08-02 15:00:00 TS 23.6459 78.6736 main 0 0 _________PO___ -1 23.7917 78.3471 TC 30 23.5000 79.0000 1 14 294
1919209N18090 1919 18 NI BB NOT_NAMED 1919-08-02 18:00:00 TS 23.9463 78.0420 main 0 0 _________OP___ -1 24.1000 77.8000 TC 30 23.7926 78.2839 1 13 299
1919209N18090 1919 18 NI AS NOT_NAMED 1919-08-02 21:00:00 TS 24.2600 77.4415 main 0 0 _________PP___ -1 24.4150 77.2126 TC 30 24.1051 77.6704 1 12 301
1919209N18090 1919 18 NI AS NOT_NAMED 1919-08-03 00:00:00 TS 24.5576 76.9233 main 0 0 _________OP___ -1 24.7000 76.7000 TC 30 24.4152 77.1466 1 10 303
1919209N18090 1919 18 NI AS NOT_NAMED 1919-08-03 03:00:00 TS 24.8074 76.5061 main 0 0 _________PO___ -1 24.9147 76.3121 TC 30 24.7000 76.7000 1 8 303
1919209N18090 1919 18 NI AS NOT_NAMED 1919-08-03 06:00:00 TS 25.0159 76.1449 main 0 0 _________OP___ -1 25.1000 76.0000 TC 30 24.9317 76.2897 1 7 304
1919209N18090 1919 18 NI AS NOT_NAMED 1919-08-03 09:00:00 TS 25.2218 75.8180 main 0 0 _________PP___ -1 25.3074 75.6850 TC 30 25.1362 75.9511 1 7 305
1919209N18090 1919 18 NI AS NOT_NAMED 1919-08-03 12:00:00 TS 25.4113 75.5310 main 0 0 _________OP___ -1 25.5000 75.4000 TC 30 25.3226 75.6619 1 6 306
1919209N18090 1919 18 NI AS NOT_NAMED 1919-08-03 15:00:00 TS 25.5750 75.2712 main 0 0 _________PO___ -1 25.6499 75.1423 TC 30 25.5000 75.4000 1 5 306
1919209N18090 1919 18 NI AS NOT_NAMED 1919-08-03 18:00:00 TS 25.7289 75.0408 main 0 0 _________OP___ -1 25.8000 74.9000 TC 30 25.6756 75.1463 1 5 308
1919209N18090 1919 18 NI AS NOT_NAMED 1919-08-03 21:00:00 TS 25.9055 74.7987 main 0 0 _________PP___ -1 25.9876 74.6528 TC 30 25.8508 74.8960 1 6 310
1919209N18090 1919 18 NI AS NOT_NAMED 1919-08-04 00:00:00 TS 26.0837 74.5651 main 0 0 _________OP___ -1 26.2000 74.4000 TC 30 26.0256 74.6477 1 5 309
1919209N18090 1919 18 NI AS NOT_NAMED 1919-08-04 03:00:00 NR 26.2000 74.4000 main 0 __________O___ -1 TC 26.2000 74.4000 1 4 308

IBTrACS Databaseについて

本データベースは、米国NOAAが公開する1842年以降の世界の熱帯低気圧のベストトラックデータアーカイブInternational Best Track Archive for Climate Stewardship (IBTrACS)を、ウェブで閲覧しやすい形式に変換したものです。

最終更新日:2021-12-06